CheckWX is a tool to help pilots better visualize weather data.  It is not intended as a substitute for an official pre-flight weather briefing.

09:35:42 UTC

EETU METAR
Tartu Airport
Tartu, Estonia
Current

46 mins ago

EETU 180850Z 24005KT 5000 BR BKN004 OVC011 11/10 Q1014
Observed
Oct-18 @ 08:50 UTC
Wind
  • 240° at 5 KTS
Visibility
5,000 meters
Flight Rules
LIFR
Conditions
Mist
Cloud Levels
  • Broken at 400' AGL
  • Overcast at 1,100' AGL
Temperature
11°C / 52°F
Dewpoint
10°C / 50°F
Humidity
94%
Altimeter
29.94" Hg
Pressure
1013.92 hPa
Previous

2 hours ago

EETU 180750Z 23006KT 9999 SCT008 BKN013 11/09 Q1014
Observed
Oct-18 @ 07:50 UTC
Wind
  • 230° at 6 KTS
Visibility
10,000+ meters
Flight Rules
MVFR
Cloud Levels
  • Scattered at 800' AGL
  • Broken at 1,300' AGL
Temperature
11°C / 52°F
Dewpoint
C / 48°F
Humidity
88%
Altimeter
29.94" Hg
Pressure
1013.92 hPa
Previous

3 hours ago

EETU 180650Z 24009KT 9999 BKN006 OVC011 10/09 Q1013
Observed
Oct-18 @ 06:50 UTC
Wind
  • 240° at 9 KTS
Visibility
10,000+ meters
Flight Rules
IFR
Cloud Levels
  • Broken at 600' AGL
  • Overcast at 1,100' AGL
Temperature
10°C / 50°F
Dewpoint
C / 48°F
Humidity
94%
Altimeter
29.91" Hg
Pressure
1012.92 hPa